sensor_id;sensor_type;location;lat;lon;timestamp;temperature;humidity
21676;DHT22;10999;51.332;9.458;2023-05-10T00:01:18;15.40;91.50
21676;DHT22;10999;51.332;9.458;2023-05-10T00:03:45;15.40;91.90
21676;DHT22;10999;51.332;9.458;2023-05-10T00:06:12;15.40;92.10
21676;DHT22;10999;51.332;9.458;2023-05-10T00:08:38;15.40;92.90
21676;DHT22;10999;51.332;9.458;2023-05-10T00:11:05;15.40;93.50
21676;DHT22;10999;51.332;9.458;2023-05-10T00:13:32;15.30;93.80
21676;DHT22;10999;51.332;9.458;2023-05-10T00:15:59;15.30;94.30
21676;DHT22;10999;51.332;9.458;2023-05-10T00:18:25;15.30;95.00
21676;DHT22;10999;51.332;9.458;2023-05-10T00:20:52;15.20;95.60
21676;DHT22;10999;51.332;9.458;2023-05-10T00:23:19;15.20;95.90
21676;DHT22;10999;51.332;9.458;2023-05-10T00:25:45;15.20;95.90
21676;DHT22;10999;51.332;9.458;2023-05-10T00:28:12;15.20;95.80
21676;DHT22;10999;51.332;9.458;2023-05-10T00:30:39;15.20;96.40
21676;DHT22;10999;51.332;9.458;2023-05-10T00:33:05;15.10;96.70
21676;DHT22;10999;51.332;9.458;2023-05-10T00:35:32;15.10;96.50
21676;DHT22;10999;51.332;9.458;2023-05-10T00:37:59;15.10;96.90
21676;DHT22;10999;51.332;9.458;2023-05-10T00:40:26;15.10;97.60
21676;DHT22;10999;51.332;9.458;2023-05-10T00:42:53;15.00;98.00
21676;DHT22;10999;51.332;9.458;2023-05-10T00:45:19;15.00;98.60
21676;DHT22;10999;51.332;9.458;2023-05-10T00:47:46;15.00;99.00
21676;DHT22;10999;51.332;9.458;2023-05-10T00:50:14;15.00;99.50
21676;DHT22;10999;51.332;9.458;2023-05-10T00:52:42;14.90;99.60
21676;DHT22;10999;51.332;9.458;2023-05-10T00:55:10;15.00;99.80
21676;DHT22;10999;51.332;9.458;2023-05-10T00:57:38;14.90;99.90
21676;DHT22;10999;51.332;9.458;2023-05-10T01:00:06;14.90;99.90
21676;DHT22;10999;51.332;9.458;2023-05-10T01:02:34;14.90;99.90
21676;DHT22;10999;51.332;9.458;2023-05-10T01:05:02;14.90;99.90
21676;DHT22;10999;51.332;9.458;2023-05-10T01:07:30;14.90;99.90
21676;DHT22;10999;51.332;9.458;2023-05-10T01:09:57;14.80;99.90
21676;DHT22;10999;51.332;9.458;2023-05-10T01:12:24;14.80;99.90
21676;DHT22;10999;51.332;9.458;2023-05-10T01:14:51;14.80;99.90
21676;DHT22;10999;51.332;9.458;2023-05-10T01:17:18;14.80;99.90
21676;DHT22;10999;51.332;9.458;2023-05-10T01:19:46;14.80;99.90
21676;DHT22;10999;51.332;9.458;2023-05-10T01:31:02;14.70;99.90
21676;DHT22;10999;51.332;9.458;2023-05-10T01:33:40;14.60;99.90
21676;DHT22;10999;51.332;9.458;2023-05-10T01:36:20;14.60;99.90
21676;DHT22;10999;51.332;9.458;2023-05-10T01:39:05;14.60;99.90
21676;DHT22;10999;51.332;9.458;2023-05-10T01:41:49;14.60;99.90
21676;DHT22;10999;51.332;9.458;2023-05-10T01:47:15;14.60;99.90
21676;DHT22;10999;51.332;9.458;2023-05-10T01:49:49;14.60;99.90
21676;DHT22;10999;51.332;9.458;2023-05-10T01:52:18;14.50;99.90
21676;DHT22;10999;51.332;9.458;2023-05-10T01:54:55;14.50;99.90
21676;DHT22;10999;51.332;9.458;2023-05-10T01:57:26;14.40;99.90
21676;DHT22;10999;51.332;9.458;2023-05-10T01:59:53;14.50;99.90
21676;DHT22;10999;51.332;9.458;2023-05-10T02:02:22;14.40;99.90
21676;DHT22;10999;51.332;9.458;2023-05-10T02:04:50;14.40;99.90
21676;DHT22;10999;51.332;9.458;2023-05-10T02:07:18;14.40;99.90
21676;DHT22;10999;51.332;9.458;2023-05-10T02:09:46;14.40;99.90
21676;DHT22;10999;51.332;9.458;2023-05-10T02:12:15;14.30;99.90
21676;DHT22;10999;51.332;9.458;2023-05-10T02:14:43;14.30;99.90
21676;DHT22;10999;51.332;9.458;2023-05-10T02:17:11;14.30;99.90
21676;DHT22;10999;51.332;9.458;2023-05-10T02:19:40;14.30;99.90
21676;DHT22;10999;51.332;9.458;2023-05-10T02:22:09;14.20;99.90
21676;DHT22;10999;51.332;9.458;2023-05-10T02:24:36;14.20;99.90
21676;DHT22;10999;51.332;9.458;2023-05-10T02:27:04;14.20;99.90
21676;DHT22;10999;51.332;9.458;2023-05-10T02:29:32;14.20;99.90
21676;DHT22;10999;51.332;9.458;2023-05-10T02:32:00;14.20;99.90
21676;DHT22;10999;51.332;9.458;2023-05-10T02:34:27;14.20;99.90
21676;DHT22;10999;51.332;9.458;2023-05-10T02:36:55;14.20;99.90
21676;DHT22;10999;51.332;9.458;2023-05-10T02:39:23;14.20;99.90
21676;DHT22;10999;51.332;9.458;2023-05-10T02:41:52;14.10;99.90
21676;DHT22;10999;51.332;9.458;2023-05-10T02:44:19;14.10;99.90
21676;DHT22;10999;51.332;9.458;2023-05-10T02:46:47;14.10;99.90
21676;DHT22;10999;51.332;9.458;2023-05-10T02:49:15;14.10;99.90
21676;DHT22;10999;51.332;9.458;2023-05-10T08:02:59;14.60;92.40
21676;DHT22;10999;51.332;9.458;2023-05-10T08:05:26;14.60;92.90
21676;DHT22;10999;51.332;9.458;2023-05-10T08:07:53;14.70;93.00
21676;DHT22;10999;51.332;9.458;2023-05-10T08:10:19;14.80;94.20
21676;DHT22;10999;51.332;9.458;2023-05-10T08:12:46;14.70;90.50
21676;DHT22;10999;51.332;9.458;2023-05-10T08:15:13;14.80;89.90
21676;DHT22;10999;51.332;9.458;2023-05-10T08:17:40;14.90;90.60
21676;DHT22;10999;51.332;9.458;2023-05-10T08:20:07;14.90;87.90
21676;DHT22;10999;51.332;9.458;2023-05-10T08:22:34;14.90;91.00
21676;DHT22;10999;51.332;9.458;2023-05-10T08:25:01;15.00;89.20
21676;DHT22;10999;51.332;9.458;2023-05-10T08:27:27;15.00;89.90
21676;DHT22;10999;51.332;9.458;2023-05-10T08:29:54;15.00;88.80
21676;DHT22;10999;51.332;9.458;2023-05-10T08:32:21;15.00;86.80
21676;DHT22;10999;51.332;9.458;2023-05-10T08:34:47;15.10;86.80
21676;DHT22;10999;51.332;9.458;2023-05-10T08:37:14;15.20;87.60
21676;DHT22;10999;51.332;9.458;2023-05-10T08:39:41;15.30;87.60
21676;DHT22;10999;51.332;9.458;2023-05-10T08:42:09;15.40;86.70
21676;DHT22;10999;51.332;9.458;2023-05-10T08:44:36;15.40;83.40
21676;DHT22;10999;51.332;9.458;2023-05-10T08:47:06;15.60;83.60
21676;DHT22;10999;51.332;9.458;2023-05-10T08:49:35;15.70;82.40
21676;DHT22;10999;51.332;9.458;2023-05-10T08:52:04;15.80;82.50
21676;DHT22;10999;51.332;9.458;2023-05-10T08:54:33;16.00;85.30
21676;DHT22;10999;51.332;9.458;2023-05-10T08:57:00;16.20;79.50
21676;DHT22;10999;51.332;9.458;2023-05-10T08:59:27;16.30;78.70
21676;DHT22;10999;51.332;9.458;2023-05-10T09:01:57;16.30;78.00
21676;DHT22;10999;51.332;9.458;2023-05-10T09:04:27;16.60;81.00
21676;DHT22;10999;51.332;9.458;2023-05-10T09:06:54;17.00;82.50
21676;DHT22;10999;51.332;9.458;2023-05-10T09:09:21;17.20;73.90
21676;DHT22;10999;51.332;9.458;2023-05-10T09:11:49;17.20;74.00
21676;DHT22;10999;51.332;9.458;2023-05-10T09:14:16;17.30;74.10
21676;DHT22;10999;51.332;9.458;2023-05-10T09:16:44;17.40;77.00
21676;DHT22;10999;51.332;9.458;2023-05-10T09:19:10;17.50;74.30
21676;DHT22;10999;51.332;9.458;2023-05-10T09:21:38;17.50;71.90
21676;DHT22;10999;51.332;9.458;2023-05-10T09:24:08;17.70;73.00
21676;DHT22;10999;51.332;9.458;2023-05-10T09:26:35;17.90;74.20
21676;DHT22;10999;51.332;9.458;2023-05-10T09:29:11;17.90;64.70
21676;DHT22;10999;51.332;9.458;2023-05-10T09:31:51;17.80;65.10
21676;DHT22;10999;51.332;9.458;2023-05-10T09:34:19;17.50;60.00
21676;DHT22;10999;51.332;9.458;2023-05-10T09:36:52;17.40;62.30
21676;DHT22;10999;51.332;9.458;2023-05-10T09:39:19;17.30;64.30
21676;DHT22;10999;51.332;9.458;2023-05-10T09:41:46;17.20;66.80
21676;DHT22;10999;51.332;9.458;2023-05-10T09:44:17;17.30;66.30
21676;DHT22;10999;51.332;9.458;2023-05-10T09:46:49;17.20;63.70
21676;DHT22;10999;51.332;9.458;2023-05-10T09:49:17;17.20;59.90
21676;DHT22;10999;51.332;9.458;2023-05-10T09:51:43;16.90;62.00
21676;DHT22;10999;51.332;9.458;2023-05-10T09:54:15;16.90;63.80
21676;DHT22;10999;51.332;9.458;2023-05-10T09:56:42;17.20;72.70
21676;DHT22;10999;51.332;9.458;2023-05-10T09:59:11;17.40;68.50
21676;DHT22;10999;51.332;9.458;2023-05-10T10:01:38;17.50;68.70
21676;DHT22;10999;51.332;9.458;2023-05-10T10:04:08;17.30;60.20
21676;DHT22;10999;51.332;9.458;2023-05-10T10:06:40;17.40;62.60
21676;DHT22;10999;51.332;9.458;2023-05-10T10:09:07;17.30;62.30
21676;DHT22;10999;51.332;9.458;2023-05-10T10:11:35;17.20;59.30
21676;DHT22;10999;51.332;9.458;2023-05-10T10:14:02;17.20;59.90
21676;DHT22;10999;51.332;9.458;2023-05-10T10:16:30;17.20;64.20
21676;DHT22;10999;51.332;9.458;2023-05-10T10:18:58;17.20;62.20
21676;DHT22;10999;51.332;9.458;2023-05-10T10:21:25;17.20;61.30
21676;DHT22;10999;51.332;9.458;2023-05-10T10:23:52;17.30;62.70
21676;DHT22;10999;51.332;9.458;2023-05-10T10:26:20;17.60;65.60
21676;DHT22;10999;51.332;9.458;2023-05-10T10:29:31;17.90;59.60
21676;DHT22;10999;51.332;9.458;2023-05-10T10:32:12;18.10;58.20
21676;DHT22;10999;51.332;9.458;2023-05-10T10:34:45;18.30;59.80
21676;DHT22;10999;51.332;9.458;2023-05-10T10:37:12;18.50;57.00
21676;DHT22;10999;51.332;9.458;2023-05-10T10:39:38;18.70;55.70
21676;DHT22;10999;51.332;9.458;2023-05-10T10:42:05;18.90;53.70
21676;DHT22;10999;51.332;9.458;2023-05-10T10:52:30;19.30;53.40
21676;DHT22;10999;51.332;9.458;2023-05-10T10:55:19;19.30;52.70
21676;DHT22;10999;51.332;9.458;2023-05-10T10:57:56;19.20;54.00
21676;DHT22;10999;51.332;9.458;2023-05-10T11:00:32;19.10;54.80
21676;DHT22;10999;51.332;9.458;2023-05-10T11:03:03;19.20;58.30
21676;DHT22;10999;51.332;9.458;2023-05-10T11:05:34;19.50;50.20
21676;DHT22;10999;51.332;9.458;2023-05-10T11:08:28;19.50;48.20
21676;DHT22;10999;51.332;9.458;2023-05-10T11:18:38;19.80;47.70
21676;DHT22;10999;51.332;9.458;2023-05-10T11:21:04;20.00;50.90
21676;DHT22;10999;51.332;9.458;2023-05-10T11:23:33;20.00;46.20
21676;DHT22;10999;51.332;9.458;2023-05-10T11:26:14;20.00;46.60
21676;DHT22;10999;51.332;9.458;2023-05-10T11:28:48;19.90;42.80
21676;DHT22;10999;51.332;9.458;2023-05-10T11:31:16;19.70;42.40
21676;DHT22;10999;51.332;9.458;2023-05-10T11:33:51;19.50;42.70
21676;DHT22;10999;51.332;9.458;2023-05-10T11:38:50;19.20;47.00
21676;DHT22;10999;51.332;9.458;2023-05-10T11:41:18;19.20;47.00
21676;DHT22;10999;51.332;9.458;2023-05-10T11:43:53;19.30;49.70
21676;DHT22;10999;51.332;9.458;2023-05-10T11:46:22;19.50;48.40
21676;DHT22;10999;51.332;9.458;2023-05-10T11:48:51;19.80;46.50
21676;DHT22;10999;51.332;9.458;2023-05-10T11:51:23;20.20;46.60
21676;DHT22;10999;51.332;9.458;2023-05-10T11:53:53;20.60;46.20
21676;DHT22;10999;51.332;9.458;2023-05-10T11:56:20;20.70;45.60
21676;DHT22;10999;51.332;9.458;2023-05-10T11:58:53;20.80;44.80
21676;DHT22;10999;51.332;9.458;2023-05-10T12:01:21;20.80;43.30
21676;DHT22;10999;51.332;9.458;2023-05-10T12:03:49;20.60;45.10
21676;DHT22;10999;51.332;9.458;2023-05-10T12:06:18;20.30;44.10
21676;DHT22;10999;51.332;9.458;2023-05-10T12:08:46;20.00;44.30
21676;DHT22;10999;51.332;9.458;2023-05-10T12:11:13;19.50;45.70
21676;DHT22;10999;51.332;9.458;2023-05-10T12:13:43;19.10;47.60
21676;DHT22;10999;51.332;9.458;2023-05-10T12:16:21;18.80;48.80
21676;DHT22;10999;51.332;9.458;2023-05-10T12:18:48;18.60;50.40
21676;DHT22;10999;51.332;9.458;2023-05-10T12:21:15;18.40;50.40
21676;DHT22;10999;51.332;9.458;2023-05-10T12:23:42;18.20;51.70
21676;DHT22;10999;51.332;9.458;2023-05-10T12:26:11;18.10;53.80
21676;DHT22;10999;51.332;9.458;2023-05-10T12:28:38;17.90;54.00
21676;DHT22;10999;51.332;9.458;2023-05-10T12:31:06;17.80;55.20
21676;DHT22;10999;51.332;9.458;2023-05-10T12:33:40;17.70;59.80
21676;DHT22;10999;51.332;9.458;2023-05-10T12:36:15;17.60;63.20
21676;DHT22;10999;51.332;9.458;2023-05-10T12:38:44;17.50;65.90
21676;DHT22;10999;51.332;9.458;2023-05-10T12:41:16;17.20;67.10
21676;DHT22;10999;51.332;9.458;2023-05-10T12:43:43;16.90;71.30
21676;DHT22;10999;51.332;9.458;2023-05-10T12:46:12;16.60;74.90
21676;DHT22;10999;51.332;9.458;2023-05-10T12:48:40;16.30;77.70
21676;DHT22;10999;51.332;9.458;2023-05-10T12:51:08;16.10;82.40
21676;DHT22;10999;51.332;9.458;2023-05-10T12:53:36;15.90;85.10
21676;DHT22;10999;51.332;9.458;2023-05-10T12:56:03;15.70;88.10
21676;DHT22;10999;51.332;9.458;2023-05-10T12:58:30;15.60;89.50
21676;DHT22;10999;51.332;9.458;2023-05-10T13:01:01;15.50;90.70
21676;DHT22;10999;51.332;9.458;2023-05-10T13:03:29;15.40;89.70
21676;DHT22;10999;51.332;9.458;2023-05-10T13:05:55;15.30;90.70
21676;DHT22;10999;51.332;9.458;2023-05-10T13:08:22;15.30;91.80
21676;DHT22;10999;51.332;9.458;2023-05-10T13:10:49;15.30;91.90
21676;DHT22;10999;51.332;9.458;2023-05-10T13:13:16;15.30;93.00
21676;DHT22;10999;51.332;9.458;2023-05-10T13:15:42;15.30;92.10
21676;DHT22;10999;51.332;9.458;2023-05-10T13:18:09;15.40;91.50
21676;DHT22;10999;51.332;9.458;2023-05-10T13:20:36;15.60;92.20
21676;DHT22;10999;51.332;9.458;2023-05-10T13:23:03;15.70;92.70
21676;DHT22;10999;51.332;9.458;2023-05-10T13:25:30;16.00;93.50
21676;DHT22;10999;51.332;9.458;2023-05-10T13:27:57;16.20;90.10
21676;DHT22;10999;51.332;9.458;2023-05-10T13:30:23;16.50;88.70
21676;DHT22;10999;51.332;9.458;2023-05-10T13:32:50;16.80;87.60
21676;DHT22;10999;51.332;9.458;2023-05-10T13:35:17;16.90;79.70
21676;DHT22;10999;51.332;9.458;2023-05-10T13:37:44;17.20;77.70
21676;DHT22;10999;51.332;9.458;2023-05-10T13:40:11;17.40;72.70
21676;DHT22;10999;51.332;9.458;2023-05-10T13:42:41;17.50;74.00
21676;DHT22;10999;51.332;9.458;2023-05-10T13:45:08;17.40;76.50
21676;DHT22;10999;51.332;9.458;2023-05-10T13:47:36;17.40;77.30
21676;DHT22;10999;51.332;9.458;2023-05-10T13:50:03;17.20;72.20
21676;DHT22;10999;51.332;9.458;2023-05-10T13:52:30;17.10;73.50
21676;DHT22;10999;51.332;9.458;2023-05-10T13:54:56;17.10;75.50
21676;DHT22;10999;51.332;9.458;2023-05-10T13:57:23;17.10;74.70
21676;DHT22;10999;51.332;9.458;2023-05-10T13:59:51;17.00;74.60
21676;DHT22;10999;51.332;9.458;2023-05-10T14:02:17;17.00;77.40
21676;DHT22;10999;51.332;9.458;2023-05-10T14:04:44;16.90;75.90
21676;DHT22;10999;51.332;9.458;2023-05-10T14:07:11;16.80;78.40
21676;DHT22;10999;51.332;9.458;2023-05-10T14:09:38;16.70;81.20
21676;DHT22;10999;51.332;9.458;2023-05-10T14:12:05;16.50;81.50
21676;DHT22;10999;51.332;9.458;2023-05-10T14:14:31;16.50;83.70
21676;DHT22;10999;51.332;9.458;2023-05-10T14:16:58;16.40;83.70
21676;DHT22;10999;51.332;9.458;2023-05-10T14:19:25;16.30;83.30
21676;DHT22;10999;51.332;9.458;2023-05-10T14:21:53;16.20;82.90
21676;DHT22;10999;51.332;9.458;2023-05-10T14:24:20;16.20;83.80
21676;DHT22;10999;51.332;9.458;2023-05-10T14:26:47;16.10;84.70
21676;DHT22;10999;51.332;9.458;2023-05-10T14:29:13;16.10;85.70
21676;DHT22;10999;51.332;9.458;2023-05-10T14:31:40;16.10;87.40
21676;DHT22;10999;51.332;9.458;2023-05-10T14:34:07;16.20;89.10
21676;DHT22;10999;51.332;9.458;2023-05-10T14:36:33;16.10;89.10
21676;DHT22;10999;51.332;9.458;2023-05-10T14:39:00;16.00;88.40
21676;DHT22;10999;51.332;9.458;2023-05-10T14:41:27;15.80;83.70
21676;DHT22;10999;51.332;9.458;2023-05-10T14:43:54;15.50;82.80
21676;DHT22;10999;51.332;9.458;2023-05-10T14:46:20;15.30;84.10
21676;DHT22;10999;51.332;9.458;2023-05-10T14:48:47;15.10;85.70
21676;DHT22;10999;51.332;9.458;2023-05-10T14:51:14;14.90;86.80
21676;DHT22;10999;51.332;9.458;2023-05-10T14:53:40;14.70;88.70
21676;DHT22;10999;51.332;9.458;2023-05-10T14:56:07;14.50;88.10
21676;DHT22;10999;51.332;9.458;2023-05-10T14:58:34;14.40;89.20
21676;DHT22;10999;51.332;9.458;2023-05-10T15:01:00;14.20;90.60
21676;DHT22;10999;51.332;9.458;2023-05-10T15:03:28;14.10;93.30
21676;DHT22;10999;51.332;9.458;2023-05-10T15:05:55;14.00;95.20
21676;DHT22;10999;51.332;9.458;2023-05-10T15:08:24;13.90;94.70
21676;DHT22;10999;51.332;9.458;2023-05-10T15:10:54;13.80;94.80
21676;DHT22;10999;51.332;9.458;2023-05-10T15:13:22;13.80;95.50
21676;DHT22;10999;51.332;9.458;2023-05-10T15:15:49;13.70;96.80
21676;DHT22;10999;51.332;9.458;2023-05-10T15:18:16;13.70;97.70
21676;DHT22;10999;51.332;9.458;2023-05-10T15:20:43;13.70;98.50
21676;DHT22;10999;51.332;9.458;2023-05-10T15:23:10;13.70;98.80
21676;DHT22;10999;51.332;9.458;2023-05-10T15:25:36;13.70;99.00
21676;DHT22;10999;51.332;9.458;2023-05-10T15:28:04;13.60;98.80
21676;DHT22;10999;51.332;9.458;2023-05-10T15:30:31;13.60;98.60
21676;DHT22;10999;51.332;9.458;2023-05-10T15:32:58;13.70;98.70
21676;DHT22;10999;51.332;9.458;2023-05-10T15:35:26;13.60;98.50
21676;DHT22;10999;51.332;9.458;2023-05-10T15:37:53;13.60;98.50
21676;DHT22;10999;51.332;9.458;2023-05-10T15:40:19;13.70;99.30
21676;DHT22;10999;51.332;9.458;2023-05-10T15:42:46;13.70;99.10
21676;DHT22;10999;51.332;9.458;2023-05-10T15:45:14;13.80;99.40
21676;DHT22;10999;51.332;9.458;2023-05-10T15:47:42;13.80;99.70
21676;DHT22;10999;51.332;9.458;2023-05-10T15:50:10;13.80;99.40
21676;DHT22;10999;51.332;9.458;2023-05-10T15:52:37;13.90;99.10
21676;DHT22;10999;51.332;9.458;2023-05-10T15:55:04;13.90;98.30
21676;DHT22;10999;51.332;9.458;2023-05-10T15:57:39;13.90;98.00
21676;DHT22;10999;51.332;9.458;2023-05-10T16:00:07;13.90;97.00
21676;DHT22;10999;51.332;9.458;2023-05-10T16:02:34;14.00;96.90
21676;DHT22;10999;51.332;9.458;2023-05-10T16:05:02;14.10;96.80
21676;DHT22;10999;51.332;9.458;2023-05-10T16:07:29;14.10;96.80
21676;DHT22;10999;51.332;9.458;2023-05-10T16:09:55;14.20;96.70
21676;DHT22;10999;51.332;9.458;2023-05-10T16:12:22;14.20;96.00
21676;DHT22;10999;51.332;9.458;2023-05-10T16:14:49;14.20;95.40
21676;DHT22;10999;51.332;9.458;2023-05-10T16:17:16;14.20;95.50
21676;DHT22;10999;51.332;9.458;2023-05-10T16:19:42;14.20;95.70
21676;DHT22;10999;51.332;9.458;2023-05-10T16:22:09;14.30;96.20
21676;DHT22;10999;51.332;9.458;2023-05-10T16:24:36;14.30;96.70
21676;DHT22;10999;51.332;9.458;2023-05-10T16:27:03;14.30;97.30
21676;DHT22;10999;51.332;9.458;2023-05-10T16:29:29;14.30;97.10
21676;DHT22;10999;51.332;9.458;2023-05-10T16:31:57;14.30;96.30
21676;DHT22;10999;51.332;9.458;2023-05-10T16:34:24;14.30;95.80
21676;DHT22;10999;51.332;9.458;2023-05-10T16:36:51;14.30;96.20
21676;DHT22;10999;51.332;9.458;2023-05-10T16:39:18;14.30;96.20
21676;DHT22;10999;51.332;9.458;2023-05-10T16:41:44;14.20;95.60
21676;DHT22;10999;51.332;9.458;2023-05-10T16:44:11;14.20;95.80
21676;DHT22;10999;51.332;9.458;2023-05-10T16:46:38;14.30;96.20
21676;DHT22;10999;51.332;9.458;2023-05-10T16:49:05;14.20;96.30
21676;DHT22;10999;51.332;9.458;2023-05-10T16:51:32;14.30;96.60
21676;DHT22;10999;51.332;9.458;2023-05-10T16:53:59;14.20;96.90
21676;DHT22;10999;51.332;9.458;2023-05-10T16:56:25;14.20;96.90
21676;DHT22;10999;51.332;9.458;2023-05-10T16:58:52;14.20;96.80
21676;DHT22;10999;51.332;9.458;2023-05-10T17:01:19;14.20;96.50
21676;DHT22;10999;51.332;9.458;2023-05-10T17:03:47;14.20;96.50
21676;DHT22;10999;51.332;9.458;2023-05-10T17:06:14;14.20;96.50
21676;DHT22;10999;51.332;9.458;2023-05-10T17:08:41;14.20;96.50
21676;DHT22;10999;51.332;9.458;2023-05-10T17:11:08;14.20;96.40
21676;DHT22;10999;51.332;9.458;2023-05-10T17:13:35;14.20;96.70
21676;DHT22;10999;51.332;9.458;2023-05-10T17:16:02;14.20;96.90
21676;DHT22;10999;51.332;9.458;2023-05-10T17:18:29;14.20;97.00
21676;DHT22;10999;51.332;9.458;2023-05-10T17:20:56;14.20;97.00
21676;DHT22;10999;51.332;9.458;2023-05-10T17:23:23;14.20;97.10
21676;DHT22;10999;51.332;9.458;2023-05-10T17:25:49;14.20;97.20
21676;DHT22;10999;51.332;9.458;2023-05-10T17:28:16;14.20;97.30
21676;DHT22;10999;51.332;9.458;2023-05-10T17:30:43;14.20;97.50
21676;DHT22;10999;51.332;9.458;2023-05-10T17:33:10;14.20;97.50
21676;DHT22;10999;51.332;9.458;2023-05-10T17:35:36;14.20;97.20
21676;DHT22;10999;51.332;9.458;2023-05-10T17:38:03;14.20;97.20
21676;DHT22;10999;51.332;9.458;2023-05-10T17:40:30;14.20;97.10
21676;DHT22;10999;51.332;9.458;2023-05-10T17:42:57;14.20;97.00
21676;DHT22;10999;51.332;9.458;2023-05-10T17:45:24;14.10;97.00
21676;DHT22;10999;51.332;9.458;2023-05-10T17:47:51;14.10;97.10
21676;DHT22;10999;51.332;9.458;2023-05-10T17:50:18;14.10;97.50
21676;DHT22;10999;51.332;9.458;2023-05-10T17:52:45;14.10;97.70
21676;DHT22;10999;51.332;9.458;2023-05-10T17:55:12;14.00;97.70
21676;DHT22;10999;51.332;9.458;2023-05-10T17:57:38;14.00;98.30
21676;DHT22;10999;51.332;9.458;2023-05-10T18:00:06;14.00;98.30
21676;DHT22;10999;51.332;9.458;2023-05-10T18:02:35;14.00;98.30
21676;DHT22;10999;51.332;9.458;2023-05-10T18:05:03;14.00;98.40
21676;DHT22;10999;51.332;9.458;2023-05-10T18:07:30;14.00;98.80
21676;DHT22;10999;51.332;9.458;2023-05-10T18:09:57;14.00;98.90
21676;DHT22;10999;51.332;9.458;2023-05-10T18:12:24;13.90;99.50
21676;DHT22;10999;51.332;9.458;2023-05-10T18:14:51;13.90;99.70
21676;DHT22;10999;51.332;9.458;2023-05-10T18:17:17;13.90;99.40
21676;DHT22;10999;51.332;9.458;2023-05-10T18:19:44;13.90;99.50
21676;DHT22;10999;51.332;9.458;2023-05-10T18:22:11;13.90;99.40
21676;DHT22;10999;51.332;9.458;2023-05-10T18:24:38;13.90;99.90
21676;DHT22;10999;51.332;9.458;2023-05-10T18:27:07;13.80;99.40
21676;DHT22;10999;51.332;9.458;2023-05-10T18:29:34;13.90;99.70
21676;DHT22;10999;51.332;9.458;2023-05-10T18:32:01;13.80;99.60
21676;DHT22;10999;51.332;9.458;2023-05-10T18:34:28;13.80;99.90
21676;DHT22;10999;51.332;9.458;2023-05-10T18:36:55;13.80;99.90
21676;DHT22;10999;51.332;9.458;2023-05-10T18:39:22;13.80;99.90
21676;DHT22;10999;51.332;9.458;2023-05-10T18:41:50;13.80;99.90
21676;DHT22;10999;51.332;9.458;2023-05-10T18:44:17;13.80;99.90
21676;DHT22;10999;51.332;9.458;2023-05-10T18:46:44;13.70;99.90
21676;DHT22;10999;51.332;9.458;2023-05-10T18:49:12;13.70;99.90
21676;DHT22;10999;51.332;9.458;2023-05-10T18:51:38;13.60;99.90
21676;DHT22;10999;51.332;9.458;2023-05-10T18:54:06;13.60;99.90
21676;DHT22;10999;51.332;9.458;2023-05-10T18:56:32;13.50;99.90
21676;DHT22;10999;51.332;9.458;2023-05-10T18:58:59;13.50;99.90
21676;DHT22;10999;51.332;9.458;2023-05-10T19:01:26;13.50;99.90
